Погода Коронадона неделю

Калифорния, США

01 - 07 сентября
  • 01сентября
    Сегодня
    +19°
    +25°
    Ясно и безоблачно
    ВремяПогодаТемператураВлажностьДавлениеВетер, м/сВероятность осадков
    02:00Ясно и безоблачно+21°C84 %760 мм2.1 м/с2 %
    05:00Ясно и безоблачно+21°C84 %760 мм2.3 м/с2 %
    08:00Ясно и безоблачно+21°C82 %761 мм2.4 м/с2 %
    11:00Ясно и безоблачно+24°C65 %761 мм4.4 м/с2 %
    14:00Ясно и безоблачно+25°C63 %761 мм6.0 м/с2 %
    17:00Ясно и безоблачно+24°C65 %760 мм5.4 м/с2 %
    20:00Ясно и безоблачно+22°C73 %760 мм4.0 м/с2 %
    23:00Ясно и безоблачно+21°C78 %761 мм3.1 м/с2 %
  • 02сентября
    Среда
    +18°
    +25°
    Ясно и безоблачно
    ВремяПогодаТемператураВлажностьДавлениеВетер, м/сВероятность осадков
    02:00Ясно и безоблачно+20°C81 %761 мм2.0 м/с2 %
    05:00Ясно и безоблачно+20°C81 %761 мм1.8 м/с2 %
    08:00Ясно и безоблачно+21°C79 %761 мм2.0 м/с2 %
    11:00Ясно и безоблачно+24°C65 %762 мм3.9 м/с2 %
    14:00Ясно и безоблачно+25°C60 %761 мм5.5 м/с2 %
    17:00Ясно и безоблачно+24°C65 %760 мм4.9 м/с2 %
    20:00Ясно и безоблачно+21°C74 %760 мм3.1 м/с2 %
    23:00Ясно и безоблачно+21°C79 %761 мм1.8 м/с2 %
  • 03сентября
    Четверг
    +19°
    +24°
    Ясно и безоблачно
    ВремяПогодаТемператураВлажностьДавлениеВетер, м/сВероятность осадков
    02:00Ясно и безоблачно+20°C84 %760 мм0.7 м/с2 %
    05:00Ясно и безоблачно+19°C86 %760 мм1.1 м/с2 %
    08:00Ясно и безоблачно+20°C83 %760 мм0.9 м/с2 %
    11:00Ясно и безоблачно+23°C67 %760 мм3.8 м/с2 %
    14:00Ясно и безоблачно+24°C65 %759 мм5.3 м/с2 %
    17:00Ясно и безоблачно+23°C69 %758 мм5.1 м/с2 %
    20:00Практически безоблачно+21°C79 %758 мм3.9 м/с2 %
    23:00Ясно и безоблачно+21°C80 %759 мм2.3 м/с2 %
  • 04сентября
    Пятница
    +19°
    +24°
    Ясно и безоблачно
    ВремяПогодаТемператураВлажностьДавлениеВетер, м/сВероятность осадков
    02:00Ясно и безоблачно+20°C83 %759 мм1.5 м/с2 %
    05:00Ясно и безоблачно+19°C83 %758 мм1.5 м/с2 %
    08:00Облачно с прояснениями+20°C87 %759 мм1.1 м/с2 %
    11:00Ясно и безоблачно+23°C68 %760 мм3.2 м/с2 %
    14:00Ясно и безоблачно+24°C66 %759 мм4.7 м/с2 %
    17:00Ясно и безоблачно+24°C69 %758 мм4.1 м/с2 %
    20:00Практически безоблачно+21°C79 %759 мм2.5 м/с2 %
    23:00Практически безоблачно+21°C82 %759 мм1.7 м/с3 %
  • 05сентября
    Суббота
    +21°
    +25°
    Облачно с прояснениями
    ВремяПогодаТемператураВлажностьДавлениеВетер, м/сВероятность осадков
    02:00Небольшая облачность+21°C85 %759 мм1.4 м/с13 %
    05:00Небольшая облачность+20°C85 %759 мм1.5 м/с14 %
    08:00Небольшая облачность+21°C81 %760 мм1.1 м/с21 %
    11:00Облачно с прояснениями+24°C70 %759 мм2.4 м/с22 %
    14:00Облачно с прояснениями+24°C71 %759 мм2.4 м/с21 %
    17:00Практически безоблачно+25°C78 %758 мм3.0 м/с18 %
    20:00Облачно с прояснениями+23°C79 %759 мм2.8 м/с13 %
    23:00Облачно с прояснениями+22°C84 %759 мм2.2 м/с17 %
  • 06сентября
    Воскресенье
    +19°
    +27°
    Небольшая облачность
    ВремяПогодаТемператураВлажностьДавлениеВетер, м/сВероятность осадков
    05:00Облачно с прояснениями+22°C86 %758 мм2.3 м/с16 %
    11:00Небольшая облачность+25°C79 %760 мм3.9 м/с19 %
    17:00Практически безоблачно+26°C81 %758 мм5.0 м/с17 %
    23:00Ясно и безоблачно+22°C76 %759 мм2.8 м/с19 %
  • 07сентября
    Понедельник
    +18°
    +27°
    Ясно и безоблачно
    ВремяПогодаТемператураВлажностьДавлениеВетер, м/сВероятность осадков
    05:00Ясно и безоблачно+20°C84 %758 мм2.1 м/с16 %
    11:00Ясно и безоблачно+25°C64 %759 мм3.1 м/с21 %
    17:00Ясно и безоблачно+25°C59 %758 мм4.5 м/с20 %
    23:00Ясно и безоблачно+21°C84 %759 мм2.3 м/с13 %
Мы используем cookies
Соглашаюсь